createdAt,value
2019-04-28T00:01:03.777Z,13.0
2019-04-28T00:01:40.946Z,13.0
2019-04-28T00:02:15.048Z,13.0
2019-04-28T00:02:50.830Z,13.0
2019-04-28T00:03:25.873Z,13.0
2019-04-28T00:04:03.188Z,13.0
2019-04-28T00:04:37.108Z,13.0
2019-04-28T00:05:12.767Z,12.9
2019-04-28T00:05:47.363Z,12.9
2019-04-28T00:06:21.990Z,12.9
2019-04-28T00:06:56.580Z,12.9
2019-04-28T00:08:05.801Z,12.9
2019-04-28T00:08:40.382Z,12.9
2019-04-28T00:09:15.017Z,12.9
2019-04-28T00:09:51.077Z,12.9
2019-04-28T00:10:24.193Z,12.9
2019-04-28T00:11:33.398Z,12.9
2019-04-28T00:12:08.010Z,12.9
2019-04-28T00:12:42.601Z,12.9
2019-04-28T00:13:17.191Z,12.9
2019-04-28T00:13:53.483Z,12.9
2019-04-28T00:14:26.945Z,12.9
2019-04-28T00:15:02.411Z,12.9
2019-04-28T00:15:36.165Z,12.9
2019-04-28T00:16:11.544Z,12.9
2019-04-28T00:16:45.412Z,12.9
2019-04-28T00:17:21.061Z,12.9
2019-04-28T00:17:54.546Z,12.9
2019-04-28T00:19:03.898Z,12.8
2019-04-28T00:19:40.832Z,12.9
2019-04-28T00:20:14.550Z,12.8
2019-04-28T00:20:51.026Z,12.8
2019-04-28T00:21:26.378Z,12.8
2019-04-28T00:22:02.547Z,12.8
2019-04-28T00:22:38.727Z,12.8
2019-04-28T00:23:14.360Z,12.8
2019-04-28T00:23:51.189Z,12.8
2019-04-28T00:24:27.089Z,12.8
2019-04-28T00:25:02.390Z,12.8
2019-04-28T00:26:14.207Z,12.8
2019-04-28T00:26:51.855Z,12.8
2019-04-28T00:27:26.553Z,12.8
2019-04-28T00:28:02.207Z,12.8
2019-04-28T00:28:38.421Z,12.8
2019-04-28T00:29:14.583Z,12.8
2019-04-28T00:29:51.791Z,12.8
2019-04-28T00:30:26.381Z,12.8
2019-04-28T00:31:02.601Z,12.8
2019-04-28T00:31:38.200Z,12.8
2019-04-28T00:32:15.768Z,12.8
2019-04-28T00:32:51.840Z,12.8
2019-04-28T00:33:26.210Z,12.8
2019-04-28T00:34:02.389Z,12.8
2019-04-28T00:34:38.569Z,12.7
2019-04-28T00:35:13.700Z,12.7
2019-04-28T00:35:48.296Z,12.7
2019-04-28T00:36:23.440Z,12.7
2019-04-28T00:36:58.542Z,12.7
2019-04-28T00:37:33.673Z,12.7
2019-04-28T00:38:08.276Z,12.7
2019-04-28T00:38:43.410Z,12.7
2019-04-28T00:39:18.534Z,12.7
2019-04-28T00:39:53.664Z,12.7
2019-04-28T00:40:28.311Z,12.7
2019-04-28T00:41:03.410Z,12.7
2019-04-28T00:41:38.537Z,12.7
2019-04-28T00:42:13.747Z,12.6
2019-04-28T00:42:51.171Z,12.7
2019-04-28T00:43:23.918Z,12.7
2019-04-28T00:43:59.086Z,12.7
2019-04-28T00:44:34.165Z,12.7
2019-04-28T00:45:08.764Z,12.7
2019-04-28T00:45:43.951Z,12.7
2019-04-28T00:46:20.753Z,12.7
2019-04-28T00:46:54.152Z,12.7
2019-04-28T00:48:03.871Z,12.6
2019-04-28T00:48:40.895Z,12.6
2019-04-28T00:49:16.236Z,12.6
2019-04-28T00:49:52.091Z,12.6
2019-04-28T00:50:28.050Z,12.6
2019-04-28T00:51:04.219Z,12.6
2019-04-28T00:51:41.432Z,12.6
2019-04-28T00:52:16.055Z,12.6
2019-04-28T00:52:52.235Z,12.6
2019-04-28T00:53:27.904Z,12.6
2019-04-28T00:54:04.052Z,12.6
2019-04-28T00:54:39.754Z,12.6
2019-04-28T00:55:15.387Z,12.6
2019-04-28T00:55:51.553Z,12.6
2019-04-28T00:56:26.128Z,12.5
2019-04-28T00:57:35.366Z,12.5
2019-04-28T00:58:10.866Z,12.5
2019-04-28T00:58:44.547Z,12.5
2019-04-28T00:59:19.165Z,12.5
2019-04-28T00:59:57.906Z,12.5
2019-04-28T01:00:28.380Z,12.5
2019-04-28T01:01:02.990Z,12.5
2019-04-28T01:01:37.575Z,12.5
2019-04-28T01:02:12.181Z,12.5
2019-04-28T01:02:46.755Z,12.5
2019-04-28T01:03:21.844Z,12.5
2019-04-28T01:03:56.013Z,12.5
2019-04-28T01:04:31.032Z,12.5
2019-04-28T01:05:05.199Z,12.5
2019-04-28T01:05:41.123Z,12.5
2019-04-28T01:06:14.398Z,12.5
2019-04-28T01:06:49.007Z,12.5
2019-04-28T01:07:23.619Z,12.4
2019-04-28T01:08:00.930Z,12.4
2019-04-28T01:08:34.908Z,12.4
2019-04-28T01:09:46.192Z,12.4
2019-04-28T01:10:21.845Z,12.4
2019-04-28T01:10:56.976Z,12.4
2019-04-28T01:11:32.630Z,12.4
2019-04-28T01:12:08.288Z,12.4
2019-04-28T01:12:46.428Z,12.4
2019-04-28T01:13:21.409Z,12.4
2019-04-28T01:13:55.265Z,12.3
2019-04-28T01:15:04.949Z,12.3
2019-04-28T01:15:39.780Z,12.3
2019-04-28T01:16:14.170Z,12.3
2019-04-28T01:16:49.778Z,12.4
2019-04-28T01:17:25.495Z,12.4
2019-04-28T01:18:37.340Z,12.3
2019-04-28T01:19:12.458Z,12.3
2019-04-28T01:19:47.560Z,12.3
2019-04-28T01:20:22.177Z,12.3
2019-04-28T01:20:57.303Z,12.3
2019-04-28T01:21:32.444Z,12.3
2019-04-28T01:22:07.556Z,12.3
2019-04-28T01:22:42.149Z,12.3
2019-04-28T01:23:17.272Z,12.3
2019-04-28T01:23:52.400Z,12.3
2019-04-28T01:24:27.536Z,12.3
2019-04-28T01:25:02.128Z,12.4
2019-04-28T01:25:40.026Z,12.4
2019-04-28T01:26:14.606Z,12.4
2019-04-28T01:26:51.267Z,12.4
2019-04-28T01:27:26.323Z,12.4
2019-04-28T01:28:37.602Z,12.4
2019-04-28T01:29:13.267Z,12.5
2019-04-28T01:29:47.880Z,12.5
2019-04-28T01:30:22.473Z,12.5
2019-04-28T01:30:57.070Z,12.5
2019-04-28T01:31:31.687Z,12.5
2019-04-28T01:32:06.282Z,12.5
2019-04-28T01:32:40.895Z,12.5
2019-04-28T01:33:16.003Z,12.5
2019-04-28T01:33:51.137Z,12.6
2019-04-28T01:34:27.376Z,12.6
2019-04-28T01:35:02.973Z,12.6
2019-04-28T01:35:39.635Z,12.6
2019-04-28T01:36:15.315Z,12.6
2019-04-28T01:36:51.616Z,12.6
2019-04-28T01:37:26.084Z,12.6
2019-04-28T01:38:37.420Z,12.5
2019-04-28T01:39:12.066Z,12.5
2019-04-28T01:39:46.641Z,12.5
2019-04-28T01:40:21.206Z,12.5
2019-04-28T01:40:55.805Z,12.5
2019-04-28T01:42:05.020Z,12.5
2019-04-28T01:42:41.208Z,12.5
2019-04-28T01:43:14.238Z,12.6
2019-04-28T01:43:49.910Z,12.6
2019-04-28T01:44:25.549Z,12.6
2019-04-28T01:45:36.291Z,12.6
2019-04-28T01:46:11.971Z,12.6
2019-04-28T01:46:49.417Z,12.6
2019-04-28T01:47:23.276Z,12.6
2019-04-28T01:48:00.492Z,12.6
2019-04-28T01:48:35.085Z,12.6
2019-04-28T01:49:47.970Z,12.6
2019-04-28T01:50:23.115Z,12.6
2019-04-28T01:50:59.732Z,12.6
2019-04-28T01:51:34.915Z,12.6
2019-04-28T01:52:11.092Z,12.6
2019-04-28T01:52:46.762Z,12.6
2019-04-28T01:53:22.938Z,12.6
2019-04-28T01:54:00.153Z,12.6
2019-04-28T01:55:45.009Z,12.7
2019-04-28T01:56:20.471Z,12.7
2019-04-28T01:56:54.723Z,12.7
2019-04-28T01:57:30.089Z,12.7
2019-04-28T01:58:40.401Z,12.7
2019-04-28T01:59:14.708Z,12.7
2019-04-28T01:59:50.013Z,12.7
2019-04-28T02:00:25.634Z,12.7
2019-04-28T02:01:00.121Z,12.7
2019-04-28T02:02:44.970Z,12.7
2019-04-28T02:03:20.516Z,12.7
2019-04-28T02:03:54.191Z,12.7
2019-04-28T02:04:29.995Z,12.7
2019-04-28T02:06:12.587Z,12.7
2019-04-28T02:06:47.180Z,12.7
2019-04-28T02:07:21.809Z,12.7
2019-04-28T02:07:56.382Z,12.7
2019-04-28T02:08:31.002Z,12.7
2019-04-28T02:10:14.812Z,12.7
2019-04-28T02:10:50.109Z,12.7
2019-04-28T02:11:24.019Z,12.7
2019-04-28T02:12:00.759Z,12.6
2019-04-28T02:13:45.024Z,12.6
2019-04-28T02:14:20.679Z,12.6
2019-04-28T02:14:56.349Z,12.6
2019-04-28T02:15:31.986Z,12.6
2019-04-28T02:16:43.278Z,12.6
2019-04-28T02:17:20.251Z,12.7
2019-04-28T02:17:53.566Z,12.7
2019-04-28T02:18:29.838Z,12.7
2019-04-28T02:20:11.421Z,12.7
2019-04-28T02:20:46.057Z,12.7
2019-04-28T02:21:20.634Z,12.7
2019-04-28T02:21:55.256Z,12.7
2019-04-28T02:22:31.643Z,12.7
2019-04-28T02:24:13.680Z,12.7
2019-04-28T02:24:48.273Z,12.7
2019-04-28T02:25:22.872Z,12.7
2019-04-28T02:25:57.475Z,12.7
2019-04-28T02:28:15.916Z,12.7
2019-04-28T02:28:50.519Z,12.7
2019-04-28T02:29:25.113Z,12.7
2019-04-28T02:30:00.212Z,12.7
2019-04-28T02:31:43.517Z,12.7
2019-04-28T02:32:21.147Z,12.7
2019-04-28T02:32:52.691Z,12.7
2019-04-28T02:33:27.440Z,12.7
2019-04-28T02:34:01.902Z,12.7
2019-04-28T02:35:45.714Z,12.7
2019-04-28T02:36:20.775Z,12.7
2019-04-28T02:36:54.988Z,12.7
2019-04-28T02:37:30.501Z,12.7
2019-04-28T02:39:13.367Z,12.6
2019-04-28T02:39:50.499Z,12.6
2019-04-28T02:40:24.628Z,12.7
2019-04-28T02:41:00.109Z,12.7
2019-04-28T02:42:43.048Z,12.7
2019-04-28T02:43:17.140Z,12.7
2019-04-28T02:43:51.814Z,12.7
2019-04-28T02:44:30.605Z,12.7
2019-04-28T02:45:00.986Z,12.7
2019-04-28T02:46:46.838Z,12.6
2019-04-28T02:47:22.514Z,12.6
2019-04-28T02:48:00.231Z,12.6
2019-04-28T02:48:33.830Z,12.6
2019-04-28T02:49:45.122Z,12.6
2019-04-28T02:50:21.141Z,12.6
2019-04-28T02:50:55.882Z,12.6
2019-04-28T02:51:31.587Z,12.6
2019-04-28T02:52:42.833Z,12.6
2019-04-28T02:53:20.774Z,12.6
2019-04-28T02:53:54.197Z,12.6
2019-04-28T02:54:30.456Z,12.6
2019-04-28T02:56:16.227Z,12.6
2019-04-28T02:56:51.894Z,12.6
2019-04-28T02:57:27.539Z,12.6
2019-04-28T02:58:03.170Z,12.6
2019-04-28T02:59:15.028Z,12.6
2019-04-28T02:59:51.218Z,12.6
2019-04-28T03:00:27.400Z,12.6
2019-04-28T03:01:12.723Z,12.6
2019-04-28T03:02:15.372Z,12.6
2019-04-28T03:02:51.422Z,12.6
2019-04-28T03:03:27.207Z,12.6
2019-04-28T03:04:03.405Z,12.6
2019-04-28T03:05:15.183Z,12.6
2019-04-28T03:05:51.475Z,12.6
2019-04-28T03:06:30.529Z,12.6
2019-04-28T03:07:03.186Z,12.6
2019-04-28T03:08:15.027Z,12.6
2019-04-28T03:08:51.204Z,12.6
2019-04-28T03:09:27.413Z,12.6
2019-04-28T03:10:03.684Z,12.6
2019-04-28T03:11:15.396Z,12.6
2019-04-28T03:11:51.276Z,12.6
2019-04-28T03:12:27.208Z,12.6
2019-04-28T03:13:03.400Z,12.6
2019-04-28T03:14:15.210Z,12.6
2019-04-28T03:14:51.389Z,12.6
2019-04-28T03:15:27.027Z,12.6
2019-04-28T03:16:03.224Z,12.6
2019-04-28T03:17:15.185Z,12.6
2019-04-28T03:17:53.086Z,12.6
2019-04-28T03:18:27.383Z,12.6
2019-04-28T03:19:03.124Z,12.6
2019-04-28T03:20:15.398Z,12.6
2019-04-28T03:20:51.659Z,12.6
2019-04-28T03:21:27.242Z,12.6
2019-04-28T03:22:03.402Z,12.6
2019-04-28T03:23:15.250Z,12.6
2019-04-28T03:23:51.874Z,12.6
2019-04-28T03:24:27.064Z,12.6
2019-04-28T03:25:03.227Z,12.6
2019-04-28T03:26:15.072Z,12.6
2019-04-28T03:26:51.225Z,12.6
2019-04-28T03:27:27.397Z,12.6
2019-04-28T03:28:03.064Z,12.6
2019-04-28T03:29:15.397Z,12.6
2019-04-28T03:29:52.493Z,12.6
2019-04-28T03:30:27.250Z,12.6
2019-04-28T03:31:22.346Z,12.6
2019-04-28T03:32:29.254Z,12.6
2019-04-28T03:32:54.821Z,12.6
2019-04-28T03:33:27.061Z,12.6
2019-04-28T03:34:04.197Z,12.6
2019-04-28T03:35:15.064Z,12.6
2019-04-28T03:35:53.498Z,12.6
2019-04-28T03:36:26.930Z,12.6
2019-04-28T03:37:03.170Z,12.6
2019-04-28T03:38:14.922Z,12.6
2019-04-28T03:38:53.078Z,12.6
2019-04-28T03:39:30.074Z,12.6
2019-04-28T03:40:02.377Z,12.6
2019-04-28T03:41:13.707Z,12.6
2019-04-28T03:41:50.179Z,12.6
2019-04-28T03:42:24.459Z,12.6
2019-04-28T03:43:02.249Z,12.6
2019-04-28T03:44:11.589Z,12.6
2019-04-28T03:44:47.075Z,12.6
2019-04-28T03:45:22.754Z,12.6
2019-04-28T03:46:00.725Z,12.6
2019-04-28T03:46:34.030Z,12.6
2019-04-28T03:47:44.813Z,12.6
2019-04-28T03:48:21.134Z,12.6
2019-04-28T03:48:56.128Z,12.6
2019-04-28T03:49:31.803Z,12.6
2019-04-28T03:50:10.401Z,12.6
2019-04-28T03:50:43.048Z,12.7
2019-04-28T03:51:17.671Z,12.7
2019-04-28T03:51:52.266Z,12.7
2019-04-28T03:52:26.862Z,12.7
2019-04-28T03:53:01.514Z,12.7
2019-04-28T03:54:45.268Z,12.7
2019-04-28T03:55:21.248Z,12.7
2019-04-28T03:55:54.489Z,12.7
2019-04-28T03:56:30.948Z,12.7
2019-04-28T03:57:03.781Z,12.7
2019-04-28T03:58:12.896Z,12.7
2019-04-28T03:58:49.818Z,12.7
2019-04-28T03:59:22.202Z,12.7
2019-04-28T03:59:56.736Z,12.7
2019-04-28T04:00:31.834Z,12.7
2019-04-28T04:01:55.083Z,12.7
2019-04-28T04:02:16.744Z,12.7
2019-04-28T04:02:51.851Z,12.7
2019-04-28T04:03:26.958Z,12.7
2019-04-28T04:04:03.517Z,12.7
2019-04-28T04:05:11.829Z,12.8
2019-04-28T04:05:49.928Z,12.7
2019-04-28T04:06:23.130Z,12.7
2019-04-28T04:06:57.711Z,12.7
2019-04-28T04:07:32.826Z,12.7
2019-04-28T04:08:43.087Z,12.8
2019-04-28T04:09:21.092Z,12.8
2019-04-28T04:09:54.959Z,12.8
2019-04-28T04:10:31.099Z,12.8
2019-04-28T04:11:43.002Z,12.8
2019-04-28T04:12:54.746Z,12.8
2019-04-28T04:13:32.968Z,12.8
2019-04-28T04:14:42.755Z,12.8
2019-04-28T04:15:21.270Z,12.8
2019-04-28T04:15:55.201Z,12.8
2019-04-28T04:16:30.992Z,12.8
2019-04-28T04:17:06.940Z,12.8
2019-04-28T04:17:43.101Z,12.8
2019-04-28T04:18:20.622Z,12.8
2019-04-28T04:18:54.407Z,12.8
2019-04-28T04:19:30.590Z,12.8
2019-04-28T04:20:41.888Z,12.8
2019-04-28T04:21:17.547Z,12.8
2019-04-28T04:21:53.206Z,12.8
2019-04-28T04:22:31.078Z,12.8
2019-04-28T04:23:04.589Z,12.8
2019-04-28T04:23:41.337Z,12.8
2019-04-28T04:24:15.808Z,12.8
2019-04-28T04:24:52.420Z,12.8
2019-04-28T04:25:26.597Z,12.8
2019-04-28T04:26:02.229Z,12.8
2019-04-28T04:27:13.564Z,12.8
2019-04-28T04:27:50.175Z,12.8
2019-04-28T04:28:24.870Z,12.8
2019-04-28T04:29:01.029Z,12.8
2019-04-28T04:30:11.295Z,12.8
2019-04-28T04:30:46.916Z,12.8
2019-04-28T04:31:22.569Z,12.8
2019-04-28T04:32:11.354Z,12.9
2019-04-28T04:32:33.839Z,12.8
2019-04-28T04:33:43.103Z,12.9
2019-04-28T04:34:19.988Z,12.9
2019-04-28T04:34:52.319Z,12.9
2019-04-28T04:35:28.036Z,12.9
2019-04-28T04:36:01.872Z,12.9
2019-04-28T04:37:45.322Z,12.9
2019-04-28T04:38:21.692Z,12.9
2019-04-28T04:38:54.508Z,12.9
2019-04-28T04:39:30.302Z,12.9
2019-04-28T04:40:03.760Z,12.9
2019-04-28T04:41:12.925Z,12.9
2019-04-28T04:41:47.542Z,12.9
2019-04-28T04:42:22.165Z,12.8
2019-04-28T04:42:57.773Z,12.8
2019-04-28T04:43:32.891Z,12.8
2019-04-28T04:44:44.728Z,12.9
2019-04-28T04:45:20.239Z,12.8
2019-04-28T04:45:56.688Z,12.8
2019-04-28T04:46:31.585Z,12.8
2019-04-28T04:47:43.513Z,12.8
2019-04-28T04:48:21.257Z,12.8
2019-04-28T04:48:55.345Z,12.9
2019-04-28T04:49:31.523Z,12.9
2019-04-28T04:50:05.105Z,12.9
2019-04-28T04:51:15.338Z,12.9
2019-04-28T04:51:50.952Z,12.9
2019-04-28T04:52:25.582Z,12.9
2019-04-28T04:53:02.573Z,12.9
2019-04-28T04:53:35.325Z,12.9
2019-04-28T04:54:45.567Z,12.9
2019-04-28T04:55:21.166Z,12.9
2019-04-28T04:55:55.286Z,12.9
2019-04-28T04:56:30.485Z,12.9
2019-04-28T04:57:05.620Z,12.9
2019-04-28T04:58:15.299Z,12.9
2019-04-28T04:58:50.632Z,12.9
2019-04-28T04:59:25.548Z,12.9
2019-04-28T05:00:00.213Z,12.9
2019-04-28T05:00:35.252Z,12.9
2019-04-28T05:01:45.502Z,12.9
2019-04-28T05:02:29.202Z,12.9
2019-04-28T05:02:55.400Z,12.8
2019-04-28T05:03:31.447Z,12.8
2019-04-28T05:04:43.247Z,12.8
2019-04-28T05:05:20.258Z,12.8
2019-04-28T05:05:55.074Z,12.8
2019-04-28T05:06:31.296Z,12.8
2019-04-28T05:07:43.774Z,12.8
2019-04-28T05:08:20.224Z,12.8
2019-04-28T05:08:55.437Z,12.7
2019-04-28T05:09:31.147Z,12.7
2019-04-28T05:10:05.178Z,12.7
2019-04-28T05:11:15.438Z,12.6
2019-04-28T05:11:51.089Z,12.5
2019-04-28T05:12:25.671Z,12.5
2019-04-28T05:13:00.800Z,12.4
2019-04-28T05:13:36.473Z,12.4
2019-04-28T05:14:12.626Z,12.4
2019-04-28T05:14:49.403Z,12.3
2019-04-28T05:15:22.890Z,12.3
2019-04-28T05:15:57.505Z,12.2
2019-04-28T05:16:33.144Z,12.2
2019-04-28T05:17:44.960Z,12.2
2019-04-28T05:18:22.280Z,12.1
2019-04-28T05:18:56.266Z,12.1
2019-04-28T05:20:05.467Z,12.1
2019-04-28T05:21:14.694Z,12.0
2019-04-28T05:21:50.413Z,12.0
2019-04-28T05:22:26.018Z,12.0
2019-04-28T05:23:01.666Z,12.0
2019-04-28T05:24:15.612Z,12.0
2019-04-28T05:24:51.028Z,12.0
2019-04-28T05:25:24.467Z,12.0
2019-04-28T05:26:01.430Z,12.0
2019-04-28T05:26:36.195Z,12.0
2019-04-28T05:27:11.730Z,12.0
2019-04-28T05:27:49.916Z,12.0
2019-04-28T05:28:24.071Z,12.0
2019-04-28T05:28:59.872Z,12.0
2019-04-28T05:29:35.913Z,12.0
2019-04-28T05:30:13.937Z,12.0
2019-04-28T05:30:47.767Z,12.0
2019-04-28T05:31:24.380Z,12.0
2019-04-28T05:32:03.242Z,12.0
2019-04-28T05:32:42.978Z,11.9
2019-04-28T05:33:46.034Z,11.9
2019-04-28T05:34:23.852Z,11.9
2019-04-28T05:34:55.739Z,11.9
2019-04-28T05:35:30.315Z,11.9
2019-04-28T05:36:04.926Z,11.9
2019-04-28T05:37:14.157Z,11.9
2019-04-28T05:37:49.390Z,11.9
2019-04-28T05:38:23.848Z,11.9
2019-04-28T05:39:00.135Z,11.9
2019-04-28T05:39:34.110Z,11.9
2019-04-28T05:40:10.422Z,11.9
2019-04-28T05:40:43.831Z,11.9
2019-04-28T05:41:19.600Z,11.9
2019-04-28T05:41:54.102Z,11.9
2019-04-28T05:42:30.203Z,11.8
2019-04-28T05:43:04.890Z,11.8
2019-04-28T05:44:16.733Z,11.8
2019-04-28T05:44:51.832Z,11.7
2019-04-28T05:45:26.454Z,11.7
2019-04-28T05:46:01.042Z,11.7
2019-04-28T05:46:35.636Z,11.7
2019-04-28T05:47:44.836Z,11.7
2019-04-28T05:48:20.074Z,11.7
2019-04-28T05:48:55.128Z,11.6
2019-04-28T05:49:31.283Z,11.6
2019-04-28T05:50:06.957Z,11.6
2019-04-28T05:50:43.099Z,11.5
2019-04-28T05:51:19.698Z,11.4
2019-04-28T05:51:53.345Z,11.4
2019-04-28T05:52:29.891Z,11.3
2019-04-28T05:53:03.614Z,11.3
2019-04-28T05:54:14.382Z,11.2
2019-04-28T05:54:50.035Z,11.1
2019-04-28T05:55:24.644Z,11.1
2019-04-28T05:56:00.125Z,11.1
2019-04-28T05:56:34.376Z,11.1
2019-04-28T05:57:44.145Z,11.1
2019-04-28T05:58:19.787Z,11.1
2019-04-28T05:58:53.301Z,11.0
2019-04-28T06:00:05.145Z,11.0
2019-04-28T06:01:16.436Z,11.0
2019-04-28T06:01:52.835Z,10.9
2019-04-28T06:02:27.746Z,10.9
2019-04-28T06:03:02.389Z,10.9
2019-04-28T06:03:37.498Z,10.9
2019-04-28T06:04:12.087Z,10.8
2019-04-28T06:04:49.320Z,10.8
2019-04-28T06:05:23.918Z,10.7
2019-04-28T06:05:59.887Z,10.6
2019-04-28T06:06:34.681Z,10.5
2019-04-28T06:07:10.048Z,10.5
2019-04-28T06:07:43.890Z,10.5
2019-04-28T06:08:20.180Z,10.4
2019-04-28T06:08:54.157Z,10.4
2019-04-28T06:09:30.325Z,10.4
2019-04-28T06:10:06.006Z,10.4
2019-04-28T06:10:42.192Z,10.4
2019-04-28T06:11:19.977Z,10.4
2019-04-28T06:11:54.554Z,10.4
2019-04-28T06:12:31.821Z,10.4
2019-04-28T06:13:05.798Z,10.4
2019-04-28T06:13:41.442Z,10.4
2019-04-28T06:14:17.108Z,10.4
2019-04-28T06:14:52.759Z,10.5
2019-04-28T06:15:29.462Z,10.5
2019-04-28T06:16:03.035Z,10.5
2019-04-28T06:16:37.621Z,10.5
2019-04-28T06:17:12.234Z,10.5
2019-04-28T06:17:46.841Z,10.5
2019-04-28T06:18:21.452Z,10.5
2019-04-28T06:18:56.047Z,10.5
2019-04-28T06:20:05.251Z,10.5
2019-04-28T06:21:14.464Z,10.4
2019-04-28T06:21:49.570Z,10.4
2019-04-28T06:22:25.746Z,10.4
2019-04-28T06:23:01.910Z,10.4
2019-04-28T06:23:38.657Z,10.4
2019-04-28T06:24:13.775Z,10.4
2019-04-28T06:24:49.930Z,10.5
2019-04-28T06:25:24.522Z,10.5
2019-04-28T06:25:59.114Z,10.5
2019-04-28T06:26:33.795Z,10.5
2019-04-28T06:27:08.364Z,10.4
2019-04-28T06:27:44.012Z,10.5
2019-04-28T06:28:18.597Z,10.4
2019-04-28T06:28:54.248Z,10.4
2019-04-28T06:30:06.601Z,10.4
2019-04-28T06:30:42.248Z,10.5
2019-04-28T06:31:17.353Z,10.5
2019-04-28T06:31:52.552Z,10.5
2019-04-28T06:32:27.146Z,10.5
2019-04-28T06:33:07.812Z,10.5
2019-04-28T06:33:37.405Z,10.5
2019-04-28T06:34:12.594Z,10.5
2019-04-28T06:35:21.694Z,10.5
2019-04-28T06:35:56.291Z,10.5
2019-04-28T06:36:30.904Z,10.5
2019-04-28T06:37:05.500Z,10.5
2019-04-28T06:38:14.727Z,10.5
2019-04-28T06:38:49.330Z,10.5
2019-04-28T06:39:23.918Z,10.5
2019-04-28T06:39:58.504Z,10.5
2019-04-28T06:40:33.111Z,10.5
2019-04-28T06:41:07.724Z,10.5
2019-04-28T06:41:42.304Z,10.5
2019-04-28T06:42:16.948Z,10.5
2019-04-28T06:42:51.516Z,10.5
2019-04-28T06:43:26.135Z,10.5
2019-04-28T06:44:00.757Z,10.5
2019-04-28T06:44:35.355Z,10.5
2019-04-28T06:45:45.601Z,10.5
2019-04-28T06:46:20.191Z,10.5
2019-04-28T06:46:55.330Z,10.5
2019-04-28T06:47:30.453Z,10.5
2019-04-28T06:48:05.561Z,10.4
2019-04-28T06:49:18.616Z,10.4
2019-04-28T06:49:53.570Z,10.4
2019-04-28T06:50:29.250Z,10.4
2019-04-28T06:51:05.413Z,10.4
2019-04-28T06:51:41.598Z,10.4
2019-04-28T06:52:17.248Z,10.4
2019-04-28T06:52:53.405Z,10.4
2019-04-28T06:53:29.593Z,10.4
2019-04-28T06:54:05.259Z,10.4
2019-04-28T06:54:41.402Z,10.4
2019-04-28T06:55:17.617Z,10.4
2019-04-28T06:55:53.251Z,10.4
2019-04-28T06:56:29.438Z,10.4
2019-04-28T06:57:05.592Z,10.4
2019-04-28T06:58:17.436Z,10.4
2019-04-28T06:58:59.030Z,10.4
2019-04-28T06:59:29.254Z,10.4
2019-04-28T07:00:05.417Z,10.4
2019-04-28T07:00:41.082Z,10.4
2019-04-28T07:01:16.723Z,10.4
2019-04-28T07:01:52.371Z,10.4
2019-04-28T07:02:28.024Z,10.5
2019-04-28T07:03:02.132Z,10.5
2019-04-28T07:03:36.722Z,10.5
2019-04-28T07:04:11.302Z,10.5
2019-04-28T07:04:45.913Z,10.5
2019-04-28T07:05:20.517Z,10.5
2019-04-28T07:05:55.132Z,10.5
2019-04-28T07:06:29.738Z,10.4
2019-04-28T07:07:05.384Z,10.4
2019-04-28T07:08:16.684Z,10.4
2019-04-28T07:08:52.350Z,10.4
2019-04-28T07:09:28.027Z,10.3
2019-04-28T07:10:02.604Z,10.3
2019-04-28T07:10:37.708Z,10.3
2019-04-28T07:11:13.459Z,10.3
2019-04-28T07:11:47.428Z,10.2
2019-04-28T07:12:23.634Z,10.2
2019-04-28T07:12:59.295Z,10.2
2019-04-28T07:13:35.457Z,10.2
2019-04-28T07:14:11.619Z,10.2
2019-04-28T07:14:47.323Z,10.2
2019-04-28T07:15:22.408Z,10.2
2019-04-28T07:15:58.053Z,10.2
2019-04-28T07:16:33.732Z,10.1
2019-04-28T07:17:08.321Z,10.1
2019-04-28T07:17:42.895Z,10.1
2019-04-28T07:18:17.507Z,10.1
2019-04-28T07:18:52.105Z,10.0
2019-04-28T07:19:27.770Z,10.0
2019-04-28T07:20:03.484Z,10.0
2019-04-28T07:20:39.170Z,10.0
2019-04-28T07:21:14.719Z,10.0
2019-04-28T07:22:24.979Z,10.1
2019-04-28T07:22:59.568Z,10.1
2019-04-28T07:23:34.195Z,10.1
2019-04-28T07:24:08.813Z,10.1
2019-04-28T07:24:44.847Z,10.1
2019-04-28T07:25:17.988Z,10.1
2019-04-28T07:25:53.143Z,10.1
2019-04-28T07:26:28.263Z,10.1
2019-04-28T07:27:03.400Z,10.1
2019-04-28T07:27:37.980Z,10.1
2019-04-28T07:28:13.091Z,10.2
2019-04-28T07:28:49.276Z,10.2
2019-04-28T07:29:25.031Z,10.2
2019-04-28T07:30:00.071Z,10.2
2019-04-28T07:30:35.723Z,10.2
2019-04-28T07:31:11.362Z,10.2
2019-04-28T07:31:47.206Z,10.2
2019-04-28T07:32:22.672Z,10.2
2019-04-28T07:32:59.571Z,10.2
2019-04-28T07:33:35.965Z,10.2
2019-04-28T07:35:22.612Z,10.3
2019-04-28T07:35:57.623Z,10.3
2019-04-28T07:36:32.309Z,10.3
2019-04-28T07:37:06.855Z,10.4
2019-04-28T07:37:42.484Z,10.4
2019-04-28T07:38:18.128Z,10.4
2019-04-28T07:38:53.777Z,10.4
2019-04-28T07:39:29.466Z,10.5
2019-04-28T07:40:04.573Z,10.5
2019-04-28T07:40:39.768Z,10.5
2019-04-28T07:41:14.284Z,10.6
2019-04-28T07:41:49.938Z,10.6
2019-04-28T07:42:25.585Z,10.6
2019-04-28T07:43:01.246Z,10.7
2019-04-28T07:43:37.060Z,10.7
2019-04-28T07:44:10.476Z,10.7
2019-04-28T07:44:45.576Z,10.7
2019-04-28T07:45:20.734Z,10.8
2019-04-28T07:45:56.365Z,10.8
2019-04-28T07:46:32.119Z,10.8
2019-04-28T07:47:07.649Z,10.8
2019-04-28T07:47:43.328Z,10.8
2019-04-28T07:48:18.949Z,10.9
2019-04-28T07:48:53.597Z,10.9
2019-04-28T07:49:28.168Z,10.9
2019-04-28T07:50:02.791Z,10.8
2019-04-28T07:50:38.952Z,10.8
2019-04-28T07:51:14.599Z,10.8
2019-04-28T07:51:50.789Z,10.8
2019-04-28T07:52:26.949Z,10.9
2019-04-28T07:53:01.551Z,10.9
2019-04-28T07:53:36.714Z,10.9
2019-04-28T07:54:11.893Z,10.8
2019-04-28T07:55:23.141Z,10.8
2019-04-28T07:55:58.759Z,10.8
2019-04-28T07:56:34.428Z,10.8
2019-04-28T07:57:10.103Z,10.8
2019-04-28T07:57:45.712Z,10.8
2019-04-28T07:58:21.364Z,10.8
2019-04-28T07:58:57.042Z,10.8
2019-04-28T07:59:32.668Z,10.8
2019-04-28T08:00:08.338Z,10.8
2019-04-28T08:00:43.477Z,10.8
2019-04-28T08:01:19.140Z,10.8
2019-04-28T08:01:54.741Z,10.8
2019-04-28T08:02:30.399Z,10.8
2019-04-28T08:03:06.059Z,10.8
2019-04-28T08:04:17.915Z,10.8
2019-04-28T08:04:53.538Z,10.8
2019-04-28T08:05:29.841Z,10.8
2019-04-28T08:06:05.888Z,10.8
2019-04-28T08:06:41.563Z,10.8
2019-04-28T08:07:52.866Z,10.7
2019-04-28T08:08:27.459Z,10.7
2019-04-28T08:09:02.610Z,10.6
2019-04-28T08:09:38.751Z,10.6
2019-04-28T08:10:14.425Z,10.7
2019-04-28T08:12:00.359Z,10.6
2019-04-28T08:12:35.959Z,10.6
2019-04-28T08:13:11.609Z,10.6
2019-04-28T08:14:21.856Z,10.5
2019-04-28T08:14:56.466Z,10.5
2019-04-28T08:15:31.073Z,10.5
2019-04-28T08:16:05.672Z,10.5
2019-04-28T08:16:40.954Z,10.5
2019-04-28T08:17:15.401Z,10.5
2019-04-28T08:17:50.532Z,10.5
2019-04-28T08:18:25.656Z,10.5
2019-04-28T08:19:00.777Z,10.5
2019-04-28T08:19:35.387Z,10.5
2019-04-28T08:20:10.550Z,10.5
2019-04-28T08:21:56.434Z,10.4
2019-04-28T08:22:32.590Z,10.4
2019-04-28T08:23:08.774Z,10.4
2019-04-28T08:24:56.799Z,10.4
2019-04-28T08:25:32.450Z,10.4
2019-04-28T08:26:08.593Z,10.4
2019-04-28T08:26:44.763Z,10.4
2019-04-28T08:27:20.482Z,10.4
2019-04-28T08:27:56.089Z,10.4
2019-04-28T08:28:31.763Z,10.4
2019-04-28T08:29:07.390Z,10.4
2019-04-28T08:29:43.027Z,10.4
2019-04-28T08:30:54.338Z,10.4
2019-04-28T08:31:29.587Z,10.5
2019-04-28T08:32:04.097Z,10.5
2019-04-28T08:32:38.721Z,10.5
2019-04-28T08:33:13.282Z,10.5
2019-04-28T08:33:47.887Z,10.5
2019-04-28T08:34:23.029Z,10.5
2019-04-28T08:34:58.155Z,10.5
2019-04-28T08:35:32.753Z,10.5
2019-04-28T08:36:07.335Z,10.5
2019-04-28T08:38:26.291Z,10.5
2019-04-28T08:39:00.894Z,10.6
2019-04-28T08:39:37.068Z,10.6
2019-04-28T08:42:00.709Z,10.7
2019-04-28T08:42:35.435Z,10.7
2019-04-28T08:43:09.910Z,10.7
2019-04-28T08:44:53.724Z,10.7
2019-04-28T08:45:28.871Z,10.7
2019-04-28T08:46:03.991Z,10.7
2019-04-28T08:46:39.107Z,10.6
2019-04-28T08:48:27.129Z,10.6
2019-04-28T08:49:02.771Z,10.6
2019-04-28T08:49:38.941Z,10.6
2019-04-28T08:51:26.967Z,10.6
2019-04-28T08:52:03.124Z,10.6
2019-04-28T08:52:38.777Z,10.6
2019-04-28T08:54:26.796Z,10.6
2019-04-28T08:55:02.968Z,10.6
2019-04-28T08:55:39.150Z,10.5
2019-04-28T08:57:23.989Z,10.5
2019-04-28T08:57:59.098Z,10.5
2019-04-28T08:58:33.711Z,10.5
2019-04-28T08:59:08.932Z,10.5
2019-04-28T09:00:55.797Z,10.4
2019-04-28T09:01:31.466Z,10.4
2019-04-28T09:02:07.636Z,10.4
2019-04-28T09:03:54.057Z,10.4
2019-04-28T09:04:29.701Z,10.3
2019-04-28T09:05:04.457Z,10.3
2019-04-28T09:05:38.923Z,10.3
2019-04-28T09:07:22.748Z,10.2
2019-04-28T09:07:58.399Z,10.2
2019-04-28T09:08:34.056Z,10.2
2019-04-28T09:09:09.669Z,10.2
2019-04-28T09:10:21.494Z,10.3
2019-04-28T09:10:56.107Z,10.3
2019-04-28T09:11:30.700Z,10.3
2019-04-28T09:12:05.315Z,10.3
2019-04-28T09:12:40.764Z,10.3
2019-04-28T09:14:24.442Z,10.2
2019-04-28T09:14:59.403Z,10.2
2019-04-28T09:15:35.027Z,10.2
2019-04-28T09:16:11.742Z,10.2
2019-04-28T09:17:22.065Z,10.2
2019-04-28T09:17:57.125Z,10.2
2019-04-28T09:18:32.760Z,10.2
2019-04-28T09:19:08.440Z,10.2